sensor_id;sensor_type;location;lat;lon;timestamp;pressure;altitude;pressure_sealevel;temperature;humidity
29839;BME280;18669;53.356;-1.464;2023-05-03T00:01:17;101845.16;;;8.20;100.00
29839;BME280;18669;53.356;-1.464;2023-05-03T00:04:02;101849.47;;;8.15;100.00
29839;BME280;18669;53.356;-1.464;2023-05-03T00:06:47;101862.53;;;8.09;100.00
29839;BME280;18669;53.356;-1.464;2023-05-03T00:09:33;101859.06;;;8.10;100.00
29839;BME280;18669;53.356;-1.464;2023-05-03T00:12:19;101868.66;;;8.08;100.00
29839;BME280;18669;53.356;-1.464;2023-05-03T00:15:04;101863.44;;;8.11;100.00
29839;BME280;18669;53.356;-1.464;2023-05-03T00:17:49;101859.88;;;8.04;100.00
29839;BME280;18669;53.356;-1.464;2023-05-03T00:20:34;101866.91;;;8.09;100.00
29839;BME280;18669;53.356;-1.464;2023-05-03T00:23:19;101865.91;;;7.97;100.00
29839;BME280;18669;53.356;-1.464;2023-05-03T00:26:04;101863.22;;;7.89;100.00
29839;BME280;18669;53.356;-1.464;2023-05-03T00:28:49;101864.03;;;7.84;100.00
29839;BME280;18669;53.356;-1.464;2023-05-03T00:31:34;101857.88;;;7.79;100.00
29839;BME280;18669;53.356;-1.464;2023-05-03T00:34:19;101863.03;;;7.72;100.00
29839;BME280;18669;53.356;-1.464;2023-05-03T00:37:04;101875.22;;;7.69;100.00
29839;BME280;18669;53.356;-1.464;2023-05-03T00:39:49;101882.09;;;7.60;100.00
29839;BME280;18669;53.356;-1.464;2023-05-03T00:42:34;101880.38;;;7.63;100.00
29839;BME280;18669;53.356;-1.464;2023-05-03T00:45:22;101886.44;;;7.58;100.00
29839;BME280;18669;53.356;-1.464;2023-05-03T00:48:07;101864.59;;;7.55;100.00
29839;BME280;18669;53.356;-1.464;2023-05-03T00:50:52;101854.06;;;7.53;100.00
29839;BME280;18669;53.356;-1.464;2023-05-03T00:53:38;101854.84;;;7.46;100.00
29839;BME280;18669;53.356;-1.464;2023-05-03T00:56:22;101850.44;;;7.42;100.00
29839;BME280;18669;53.356;-1.464;2023-05-03T00:59:08;101835.53;;;7.36;100.00
29839;BME280;18669;53.356;-1.464;2023-05-03T01:01:53;101835.50;;;7.31;100.00
29839;BME280;18669;53.356;-1.464;2023-05-03T01:04:37;101848.59;;;7.31;100.00
29839;BME280;18669;53.356;-1.464;2023-05-03T01:10:37;101845.31;;;7.50;100.00
29839;BME280;18669;53.356;-1.464;2023-05-03T01:17:00;101841.97;;;7.61;100.00
29839;BME280;18669;53.356;-1.464;2023-05-03T01:19:49;101846.34;;;7.63;100.00
29839;BME280;18669;53.356;-1.464;2023-05-03T01:22:46;101838.56;;;7.70;100.00
29839;BME280;18669;53.356;-1.464;2023-05-03T01:25:33;101834.06;;;7.58;100.00
29839;BME280;18669;53.356;-1.464;2023-05-03T01:28:18;101842.00;;;7.66;100.00
29839;BME280;18669;53.356;-1.464;2023-05-03T01:31:03;101832.34;;;7.62;100.00
29839;BME280;18669;53.356;-1.464;2023-05-03T01:34:05;101828.88;;;7.61;100.00
29839;BME280;18669;53.356;-1.464;2023-05-03T01:36:56;101837.44;;;7.48;100.00
29839;BME280;18669;53.356;-1.464;2023-05-03T01:39:55;101834.78;;;7.45;100.00
29839;BME280;18669;53.356;-1.464;2023-05-03T01:42:42;101835.53;;;7.35;100.00
29839;BME280;18669;53.356;-1.464;2023-05-03T01:45:27;101832.03;;;7.32;100.00
29839;BME280;18669;53.356;-1.464;2023-05-03T01:48:14;101830.34;;;7.39;100.00
29839;BME280;18669;53.356;-1.464;2023-05-03T01:50:59;101824.06;;;7.23;100.00
29839;BME280;18669;53.356;-1.464;2023-05-03T01:53:44;101825.81;;;7.24;100.00
29839;BME280;18669;53.356;-1.464;2023-05-03T01:56:29;101796.97;;;7.21;100.00
29839;BME280;18669;53.356;-1.464;2023-05-03T01:59:15;101803.88;;;7.14;100.00
29839;BME280;18669;53.356;-1.464;2023-05-03T02:01:59;101805.66;;;7.17;100.00
29839;BME280;18669;53.356;-1.464;2023-05-03T02:04:44;101810.97;;;7.22;100.00
29839;BME280;18669;53.356;-1.464;2023-05-03T02:07:29;101793.53;;;7.24;100.00
29839;BME280;18669;53.356;-1.464;2023-05-03T02:10:14;101788.25;;;7.22;100.00
29839;BME280;18669;53.356;-1.464;2023-05-03T02:12:59;101802.25;;;7.24;100.00
29839;BME280;18669;53.356;-1.464;2023-05-03T02:15:44;101798.84;;;7.31;100.00
29839;BME280;18669;53.356;-1.464;2023-05-03T02:18:29;101802.38;;;7.34;100.00
29839;BME280;18669;53.356;-1.464;2023-05-03T02:21:14;101802.41;;;7.37;100.00
29839;BME280;18669;53.356;-1.464;2023-05-03T02:23:59;101795.53;;;7.48;100.00
29839;BME280;18669;53.356;-1.464;2023-05-03T02:26:44;101797.38;;;7.54;100.00
29839;BME280;18669;53.356;-1.464;2023-05-03T02:29:29;101794.72;;;7.52;100.00
29839;BME280;18669;53.356;-1.464;2023-05-03T02:32:15;101797.28;;;7.49;100.00
29839;BME280;18669;53.356;-1.464;2023-05-03T02:34:59;101812.19;;;7.52;100.00
29839;BME280;18669;53.356;-1.464;2023-05-03T02:37:45;101820.06;;;7.56;100.00
29839;BME280;18669;53.356;-1.464;2023-05-03T02:40:30;101807.88;;;7.58;100.00
29839;BME280;18669;53.356;-1.464;2023-05-03T02:43:15;101812.22;;;7.55;100.00
29839;BME280;18669;53.356;-1.464;2023-05-03T02:46:00;101818.34;;;7.57;100.00
29839;BME280;18669;53.356;-1.464;2023-05-03T02:48:45;101814.84;;;7.56;100.00
29839;BME280;18669;53.356;-1.464;2023-05-03T02:51:30;101808.66;;;7.50;100.00
29839;BME280;18669;53.356;-1.464;2023-05-03T02:54:16;101813.03;;;7.51;100.00
29839;BME280;18669;53.356;-1.464;2023-05-03T02:57:01;101800.78;;;7.48;100.00
29839;BME280;18669;53.356;-1.464;2023-05-03T02:59:46;101803.34;;;7.45;100.00
29839;BME280;18669;53.356;-1.464;2023-05-03T03:02:31;101812.06;;;7.44;100.00
29839;BME280;18669;53.356;-1.464;2023-05-03T03:05:16;101805.94;;;7.40;100.00
29839;BME280;18669;53.356;-1.464;2023-05-03T03:08:01;101798.91;;;7.35;100.00
29839;BME280;18669;53.356;-1.464;2023-05-03T03:10:46;101811.16;;;7.39;100.00
29839;BME280;18669;53.356;-1.464;2023-05-03T03:13:31;101803.38;;;7.48;100.00
29839;BME280;18669;53.356;-1.464;2023-05-03T03:16:15;101807.00;;;7.59;100.00
29839;BME280;18669;53.356;-1.464;2023-05-03T03:19:00;101807.13;;;7.69;100.00
29839;BME280;18669;53.356;-1.464;2023-05-03T03:21:45;101805.41;;;7.71;100.00
29839;BME280;18669;53.356;-1.464;2023-05-03T03:24:30;101811.53;;;7.74;100.00
29839;BME280;18669;53.356;-1.464;2023-05-03T03:27:15;101795.81;;;7.74;100.00
29839;BME280;18669;53.356;-1.464;2023-05-03T03:30:00;101803.63;;;7.70;100.00
29839;BME280;18669;53.356;-1.464;2023-05-03T03:32:45;101805.28;;;7.63;100.00
29839;BME280;18669;53.356;-1.464;2023-05-03T03:35:29;101803.50;;;7.57;100.00
29839;BME280;18669;53.356;-1.464;2023-05-03T03:38:14;101815.69;;;7.54;100.00
29839;BME280;18669;53.356;-1.464;2023-05-03T03:40:59;101817.41;;;7.53;100.00
29839;BME280;18669;53.356;-1.464;2023-05-03T03:43:44;101813.91;;;7.50;100.00
29839;BME280;18669;53.356;-1.464;2023-05-03T03:46:29;101812.19;;;7.52;100.00
29839;BME280;18669;53.356;-1.464;2023-05-03T03:49:14;101810.41;;;7.51;100.00
29839;BME280;18669;53.356;-1.464;2023-05-03T03:51:59;101805.94;;;7.39;100.00
29839;BME280;18669;53.356;-1.464;2023-05-03T03:54:44;101802.34;;;7.30;100.00
29839;BME280;18669;53.356;-1.464;2023-05-03T03:57:29;101794.31;;;7.16;100.00
29839;BME280;18669;53.356;-1.464;2023-05-03T04:00:15;101796.81;;;7.07;100.00
29839;BME280;18669;53.356;-1.464;2023-05-03T04:03:00;101795.72;;;6.91;100.00
29839;BME280;18669;53.356;-1.464;2023-05-03T04:05:45;101799.97;;;6.83;100.00
29839;BME280;18669;53.356;-1.464;2023-05-03T04:08:30;101792.13;;;6.81;100.00
29839;BME280;18669;53.356;-1.464;2023-05-03T04:11:15;101794.69;;;6.80;100.00
29839;BME280;18669;53.356;-1.464;2023-05-03T04:13:59;101791.97;;;6.70;100.00
29839;BME280;18669;53.356;-1.464;2023-05-03T04:16:45;101799.78;;;6.69;100.00
29839;BME280;18669;53.356;-1.464;2023-05-03T04:19:30;101796.25;;;6.67;100.00
29839;BME280;18669;53.356;-1.464;2023-05-03T04:22:15;101784.09;;;6.67;100.00
29839;BME280;18669;53.356;-1.464;2023-05-03T04:25:00;101791.88;;;6.64;100.00
29839;BME280;18669;53.356;-1.464;2023-05-03T04:27:45;101794.53;;;6.67;100.00
29839;BME280;18669;53.356;-1.464;2023-05-03T04:30:30;101792.75;;;6.63;100.00
29839;BME280;18669;53.356;-1.464;2023-05-03T04:33:16;101793.53;;;6.59;100.00
29839;BME280;18669;53.356;-1.464;2023-05-03T04:36:00;101791.84;;;6.61;100.00
29839;BME280;18669;53.356;-1.464;2023-05-03T04:38:46;101797.13;;;6.64;100.00
29839;BME280;18669;53.356;-1.464;2023-05-03T04:41:31;101802.25;;;6.60;100.00
29839;BME280;18669;53.356;-1.464;2023-05-03T04:44:16;101798.66;;;6.51;100.00
29839;BME280;18669;53.356;-1.464;2023-05-03T04:47:01;101802.09;;;6.49;100.00
29839;BME280;18669;53.356;-1.464;2023-05-03T04:49:46;101804.66;;;6.46;100.00
29839;BME280;18669;53.356;-1.464;2023-05-03T04:52:31;101805.56;;;6.48;100.00
29839;BME280;18669;53.356;-1.464;2023-05-03T04:55:16;101816.06;;;6.49;100.00
29839;BME280;18669;53.356;-1.464;2023-05-03T04:58:01;101808.19;;;6.48;100.00
29839;BME280;18669;53.356;-1.464;2023-05-03T05:00:46;101815.91;;;6.41;100.00
29839;BME280;18669;53.356;-1.464;2023-05-03T05:03:31;101809.78;;;6.38;100.00
29839;BME280;18669;53.356;-1.464;2023-05-03T05:06:16;101808.88;;;6.34;100.00
29839;BME280;18669;53.356;-1.464;2023-05-03T05:09:01;101814.03;;;6.33;100.00
29839;BME280;18669;53.356;-1.464;2023-05-03T05:11:46;101815.81;;;6.34;100.00
29839;BME280;18669;53.356;-1.464;2023-05-03T05:14:31;101811.44;;;6.31;100.00
29839;BME280;18669;53.356;-1.464;2023-05-03T05:17:15;101819.25;;;6.31;100.00
29839;BME280;18669;53.356;-1.464;2023-05-03T05:20:00;101818.38;;;6.31;100.00
29839;BME280;18669;53.356;-1.464;2023-05-03T05:22:45;101825.34;;;6.30;100.00
29839;BME280;18669;53.356;-1.464;2023-05-03T05:25:30;101830.56;;;6.30;100.00
29839;BME280;18669;53.356;-1.464;2023-05-03T05:28:15;101824.44;;;6.30;100.00
29839;BME280;18669;53.356;-1.464;2023-05-03T05:31:00;101823.69;;;6.35;100.00
29839;BME280;18669;53.356;-1.464;2023-05-03T05:33:45;101828.13;;;6.41;100.00
29839;BME280;18669;53.356;-1.464;2023-05-03T05:36:30;101832.56;;;6.47;100.00
29839;BME280;18669;53.356;-1.464;2023-05-03T05:39:15;101833.53;;;6.53;100.00
29839;BME280;18669;53.356;-1.464;2023-05-03T05:42:00;101836.19;;;6.56;100.00
29839;BME280;18669;53.356;-1.464;2023-05-03T05:44:45;101835.47;;;6.65;100.00
29839;BME280;18669;53.356;-1.464;2023-05-03T05:47:30;101832.97;;;6.73;100.00
29839;BME280;18669;53.356;-1.464;2023-05-03T05:50:15;101844.38;;;6.78;100.00
29839;BME280;18669;53.356;-1.464;2023-05-03T05:53:00;101833.06;;;6.79;100.00
29839;BME280;18669;53.356;-1.464;2023-05-03T05:55:45;101845.38;;;6.88;100.00
29839;BME280;18669;53.356;-1.464;2023-05-03T05:58:30;101846.28;;;6.90;100.00
29839;BME280;18669;53.356;-1.464;2023-05-03T06:01:15;101836.81;;;6.98;100.00
29839;BME280;18669;53.356;-1.464;2023-05-03T06:04:00;101836.00;;;7.03;100.00
29839;BME280;18669;53.356;-1.464;2023-05-03T06:06:45;101834.34;;;7.09;100.00
29839;BME280;18669;53.356;-1.464;2023-05-03T06:09:29;101834.44;;;7.17;100.00
29839;BME280;18669;53.356;-1.464;2023-05-03T06:12:14;101836.38;;;7.30;100.00
29839;BME280;18669;53.356;-1.464;2023-05-03T06:15:00;101830.44;;;7.45;100.00
29839;BME280;18669;53.356;-1.464;2023-05-03T06:17:46;101836.66;;;7.55;100.00
29839;BME280;18669;53.356;-1.464;2023-05-03T06:20:33;101837.69;;;7.71;100.00
29839;BME280;18669;53.356;-1.464;2023-05-03T06:23:19;101843.06;;;7.85;100.00
29839;BME280;18669;53.356;-1.464;2023-05-03T06:26:05;101830.19;;;8.07;100.00
29839;BME280;18669;53.356;-1.464;2023-05-03T06:28:50;101828.59;;;8.25;100.00
29839;BME280;18669;53.356;-1.464;2023-05-03T06:31:35;101832.25;;;8.44;100.00
29839;BME280;18669;53.356;-1.464;2023-05-03T06:34:20;101830.63;;;8.57;100.00
29839;BME280;18669;53.356;-1.464;2023-05-03T06:37:05;101829.81;;;8.67;100.00
29839;BME280;18669;53.356;-1.464;2023-05-03T06:39:50;101833.41;;;8.78;100.00
29839;BME280;18669;53.356;-1.464;2023-05-03T06:42:36;101830.00;;;8.97;100.00
29839;BME280;18669;53.356;-1.464;2023-05-03T06:45:20;101830.94;;;9.06;100.00
29839;BME280;18669;53.356;-1.464;2023-05-03T06:48:05;101838.00;;;9.21;100.00
29839;BME280;18669;53.356;-1.464;2023-05-03T06:50:51;101832.78;;;9.37;100.00
29839;BME280;18669;53.356;-1.464;2023-05-03T06:53:36;101833.72;;;9.48;100.00
29839;BME280;18669;53.356;-1.464;2023-05-03T06:56:21;101833.78;;;9.64;100.00
29839;BME280;18669;53.356;-1.464;2023-05-03T06:59:06;101828.53;;;9.72;100.00
29839;BME280;18669;53.356;-1.464;2023-05-03T07:01:54;101825.06;;;9.82;100.00
29839;BME280;18669;53.356;-1.464;2023-05-03T07:04:39;101820.69;;;9.95;100.00
29839;BME280;18669;53.356;-1.464;2023-05-03T07:07:25;101820.69;;;10.06;100.00
29839;BME280;18669;53.356;-1.464;2023-05-03T07:10:10;101810.19;;;10.21;100.00
29839;BME280;18669;53.356;-1.464;2023-05-03T07:12:55;101819.84;;;10.22;100.00
29839;BME280;18669;53.356;-1.464;2023-05-03T07:15:40;101811.03;;;10.26;100.00
29839;BME280;18669;53.356;-1.464;2023-05-03T07:18:25;101818.09;;;10.49;100.00
29839;BME280;18669;53.356;-1.464;2023-05-03T07:21:11;101823.34;;;10.57;100.00
29839;BME280;18669;53.356;-1.464;2023-05-03T07:23:56;101823.34;;;10.72;100.00
29839;BME280;18669;53.356;-1.464;2023-05-03T07:26:40;101807.53;;;10.72;100.00
29839;BME280;18669;53.356;-1.464;2023-05-03T07:29:25;101817.09;;;11.00;100.00
29839;BME280;18669;53.356;-1.464;2023-05-03T07:32:11;101810.06;;;11.05;100.00
29839;BME280;18669;53.356;-1.464;2023-05-03T07:34:56;101815.25;;;11.28;100.00
29839;BME280;18669;53.356;-1.464;2023-05-03T07:37:41;101813.31;;;11.58;100.00
29839;BME280;18669;53.356;-1.464;2023-05-03T07:40:26;101808.66;;;12.05;100.00
29839;BME280;18669;53.356;-1.464;2023-05-03T07:43:12;101810.75;;;12.67;100.00
29839;BME280;18669;53.356;-1.464;2023-05-03T07:45:56;101811.13;;;13.10;100.00
29839;BME280;18669;53.356;-1.464;2023-05-03T07:48:41;101810.88;;;13.30;100.00
29839;BME280;18669;53.356;-1.464;2023-05-03T07:51:27;101811.59;;;14.07;100.00
29839;BME280;18669;53.356;-1.464;2023-05-03T07:54:12;101807.16;;;14.59;89.62
29839;BME280;18669;53.356;-1.464;2023-05-03T07:56:57;101825.22;;;14.87;73.21
29839;BME280;18669;53.356;-1.464;2023-05-03T07:59:42;101815.19;;;15.02;74.28
29839;BME280;18669;53.356;-1.464;2023-05-03T08:02:27;101808.91;;;15.48;65.30
29839;BME280;18669;53.356;-1.464;2023-05-03T08:05:12;101799.16;;;15.50;67.63
29839;BME280;18669;53.356;-1.464;2023-05-03T08:07:57;101796.94;;;16.07;60.88
29839;BME280;18669;53.356;-1.464;2023-05-03T08:10:42;101798.47;;;16.18;63.29
29839;BME280;18669;53.356;-1.464;2023-05-03T08:13:27;101795.66;;;16.24;61.88
29839;BME280;18669;53.356;-1.464;2023-05-03T08:16:12;101801.88;;;16.23;61.56
29839;BME280;18669;53.356;-1.464;2023-05-03T08:18:57;101793.97;;;16.88;59.81
29839;BME280;18669;53.356;-1.464;2023-05-03T08:21:41;101795.53;;;17.26;58.80
29839;BME280;18669;53.356;-1.464;2023-05-03T08:24:26;101793.56;;;17.90;58.35
29839;BME280;18669;53.356;-1.464;2023-05-03T08:27:12;101789.34;;;18.37;54.94
29839;BME280;18669;53.356;-1.464;2023-05-03T08:29:58;101787.81;;;18.56;53.24
29839;BME280;18669;53.356;-1.464;2023-05-03T08:32:44;101790.47;;;18.56;52.16
29839;BME280;18669;53.356;-1.464;2023-05-03T08:35:29;101793.97;;;19.07;52.92
29839;BME280;18669;53.356;-1.464;2023-05-03T08:38:15;101796.75;;;18.79;51.65
29839;BME280;18669;53.356;-1.464;2023-05-03T08:41:28;101797.78;;;19.00;49.88
29839;BME280;18669;53.356;-1.464;2023-05-03T08:44:19;101793.22;;;19.04;49.95
29839;BME280;18669;53.356;-1.464;2023-05-03T08:47:06;101793.22;;;19.04;50.24
29839;BME280;18669;53.356;-1.464;2023-05-03T08:49:51;101797.91;;;19.67;47.75
29839;BME280;18669;53.356;-1.464;2023-05-03T08:52:40;101797.00;;;19.66;46.31
29839;BME280;18669;53.356;-1.464;2023-05-03T08:55:26;101802.25;;;19.00;47.45
29839;BME280;18669;53.356;-1.464;2023-05-03T08:58:11;101794.91;;;19.75;46.07
29839;BME280;18669;53.356;-1.464;2023-05-03T09:01:03;101785.03;;;19.77;44.69
29839;BME280;18669;53.356;-1.464;2023-05-03T09:03:49;101796.94;;;19.46;45.74
29839;BME280;18669;53.356;-1.464;2023-05-03T09:06:35;101793.13;;;19.53;47.01
29839;BME280;18669;53.356;-1.464;2023-05-03T09:09:30;101786.75;;;20.43;44.13
29839;BME280;18669;53.356;-1.464;2023-05-03T09:12:34;101789.28;;;20.88;42.46
29839;BME280;18669;53.356;-1.464;2023-05-03T09:15:21;101786.28;;;19.68;45.12
29839;BME280;18669;53.356;-1.464;2023-05-03T09:18:16;101784.91;;;19.80;45.44
29839;BME280;18669;53.356;-1.464;2023-05-03T09:21:01;101783.41;;;20.59;45.20
29839;BME280;18669;53.356;-1.464;2023-05-03T09:23:46;101780.72;;;20.59;44.94
29839;BME280;18669;53.356;-1.464;2023-05-03T09:26:32;101779.44;;;20.67;43.30
29839;BME280;18669;53.356;-1.464;2023-05-03T09:29:31;101780.63;;;21.01;43.05
29839;BME280;18669;53.356;-1.464;2023-05-03T09:32:15;101772.78;;;20.78;41.81
29839;BME280;18669;53.356;-1.464;2023-05-03T09:35:10;101782.13;;;21.65;40.23
29839;BME280;18669;53.356;-1.464;2023-05-03T09:37:54;101780.59;;;21.78;41.04
29839;BME280;18669;53.356;-1.464;2023-05-03T09:40:46;101784.38;;;21.91;39.48
29839;BME280;18669;53.356;-1.464;2023-05-03T09:43:32;101780.34;;;21.83;40.20
29839;BME280;18669;53.356;-1.464;2023-05-03T09:46:17;101774.59;;;22.61;39.68
29839;BME280;18669;53.356;-1.464;2023-05-03T09:49:02;101776.94;;;22.67;40.42
29839;BME280;18669;53.356;-1.464;2023-05-03T09:51:47;101773.38;;;23.00;38.94
29839;BME280;18669;53.356;-1.464;2023-05-03T09:54:32;101782.81;;;22.91;39.22
29839;BME280;18669;53.356;-1.464;2023-05-03T09:57:20;101771.03;;;22.43;38.83
29839;BME280;18669;53.356;-1.464;2023-05-03T10:00:05;101772.97;;;22.23;40.18
29839;BME280;18669;53.356;-1.464;2023-05-03T10:02:53;101775.38;;;23.30;38.78
29839;BME280;18669;53.356;-1.464;2023-05-03T10:05:46;101763.28;;;23.21;38.35
29839;BME280;18669;53.356;-1.464;2023-05-03T10:08:47;101771.53;;;23.50;38.15
29839;BME280;18669;53.356;-1.464;2023-05-03T10:11:34;101769.63;;;23.36;37.51
29839;BME280;18669;53.356;-1.464;2023-05-03T10:14:22;101773.84;;;23.73;37.13
29839;BME280;18669;53.356;-1.464;2023-05-03T10:17:33;101770.75;;;23.95;36.74
29839;BME280;18669;53.356;-1.464;2023-05-03T10:20:32;101772.75;;;24.07;36.56
29839;BME280;18669;53.356;-1.464;2023-05-03T10:23:19;101767.69;;;24.77;34.31
29839;BME280;18669;53.356;-1.464;2023-05-03T10:28:53;101759.81;;;24.14;34.11
29839;BME280;18669;53.356;-1.464;2023-05-03T10:31:47;101764.50;;;24.99;33.82
29839;BME280;18669;53.356;-1.464;2023-05-03T10:34:34;101758.44;;;24.52;33.94
29839;BME280;18669;53.356;-1.464;2023-05-03T10:37:25;101767.78;;;23.05;36.18
29839;BME280;18669;53.356;-1.464;2023-05-03T10:40:15;101770.28;;;21.88;38.14
29839;BME280;18669;53.356;-1.464;2023-05-03T10:43:00;101758.44;;;22.10;37.56
29839;BME280;18669;53.356;-1.464;2023-05-03T10:45:45;101759.81;;;22.18;38.27
29839;BME280;18669;53.356;-1.464;2023-05-03T10:48:31;101763.03;;;23.10;37.29
29839;BME280;18669;53.356;-1.464;2023-05-03T10:54:14;101757.84;;;22.73;36.81
29839;BME280;18669;53.356;-1.464;2023-05-03T10:57:00;101749.56;;;22.78;37.13
29839;BME280;18669;53.356;-1.464;2023-05-03T10:59:48;101734.44;;;23.57;35.14
29839;BME280;18669;53.356;-1.464;2023-05-03T11:02:39;101737.66;;;23.94;35.56
29839;BME280;18669;53.356;-1.464;2023-05-03T11:05:27;101733.34;;;24.95;34.20
29839;BME280;18669;53.356;-1.464;2023-05-03T11:08:14;101731.88;;;23.86;34.84
29839;BME280;18669;53.356;-1.464;2023-05-03T11:11:03;101728.53;;;24.42;33.97
29839;BME280;18669;53.356;-1.464;2023-05-03T11:13:53;101722.47;;;23.93;34.57
29839;BME280;18669;53.356;-1.464;2023-05-03T11:16:38;101724.06;;;24.12;34.70
29839;BME280;18669;53.356;-1.464;2023-05-03T11:19:31;101728.53;;;24.42;34.55
29839;BME280;18669;53.356;-1.464;2023-05-03T11:22:16;101719.13;;;24.35;35.01
29839;BME280;18669;53.356;-1.464;2023-05-03T11:25:01;101720.47;;;25.00;32.71
29839;BME280;18669;53.356;-1.464;2023-05-03T11:27:46;101714.94;;;25.71;31.95
29839;BME280;18669;53.356;-1.464;2023-05-03T11:30:32;101713.59;;;25.91;32.44
29839;BME280;18669;53.356;-1.464;2023-05-03T11:33:17;101707.72;;;24.89;31.92
29839;BME280;18669;53.356;-1.464;2023-05-03T11:36:03;101700.53;;;25.85;31.88
29839;BME280;18669;53.356;-1.464;2023-05-03T11:38:48;101704.94;;;25.86;30.96
29839;BME280;18669;53.356;-1.464;2023-05-03T11:41:33;101699.19;;;26.18;31.75
29839;BME280;18669;53.356;-1.464;2023-05-03T11:44:19;101685.03;;;26.01;30.14
29839;BME280;18669;53.356;-1.464;2023-05-03T11:47:04;101689.75;;;26.62;31.63
29839;BME280;18669;53.356;-1.464;2023-05-03T11:49:53;101688.25;;;27.08;29.43
29839;BME280;18669;53.356;-1.464;2023-05-03T11:52:38;101677.91;;;26.00;31.37
29839;BME280;18669;53.356;-1.464;2023-05-03T11:55:25;101675.88;;;26.17;31.47
29839;BME280;18669;53.356;-1.464;2023-05-03T11:58:23;101674.91;;;27.67;30.02
29839;BME280;18669;53.356;-1.464;2023-05-03T12:01:10;101673.25;;;27.29;28.34
29839;BME280;18669;53.356;-1.464;2023-05-03T12:03:56;101679.47;;;27.66;29.50
29839;BME280;18669;53.356;-1.464;2023-05-03T12:06:42;101673.84;;;27.45;28.47
29839;BME280;18669;53.356;-1.464;2023-05-03T12:09:32;101670.69;;;27.98;28.44
29839;BME280;18669;53.356;-1.464;2023-05-03T12:12:18;101671.38;;;27.66;28.90
29839;BME280;18669;53.356;-1.464;2023-05-03T12:15:03;101663.38;;;26.79;30.42
29839;BME280;18669;53.356;-1.464;2023-05-03T12:17:54;101663.78;;;26.99;30.51
29839;BME280;18669;53.356;-1.464;2023-05-03T12:20:39;101657.78;;;27.31;30.08
29839;BME280;18669;53.356;-1.464;2023-05-03T12:23:24;101649.22;;;27.37;29.46
29839;BME280;18669;53.356;-1.464;2023-05-03T12:26:10;101656.34;;;28.55;29.19
29839;BME280;18669;53.356;-1.464;2023-05-03T12:28:55;101660.69;;;27.76;28.74
29839;BME280;18669;53.356;-1.464;2023-05-03T12:31:40;101649.47;;;26.72;30.99
29839;BME280;18669;53.356;-1.464;2023-05-03T12:34:25;101649.00;;;25.89;31.19
29839;BME280;18669;53.356;-1.464;2023-05-03T12:37:10;101648.44;;;25.71;32.61
29839;BME280;18669;53.356;-1.464;2023-05-03T12:39:56;101645.63;;;24.78;32.72
29839;BME280;18669;53.356;-1.464;2023-05-03T12:42:42;101644.78;;;23.74;34.74
29839;BME280;18669;53.356;-1.464;2023-05-03T12:45:27;101648.47;;;22.62;36.04
29839;BME280;18669;53.356;-1.464;2023-05-03T12:48:14;101647.25;;;22.52;36.56
29839;BME280;18669;53.356;-1.464;2023-05-03T12:50:59;101650.81;;;22.35;35.93
29839;BME280;18669;53.356;-1.464;2023-05-03T12:53:45;101630.81;;;22.74;35.11
29839;BME280;18669;53.356;-1.464;2023-05-03T12:56:30;101635.66;;;22.84;35.01
29839;BME280;18669;53.356;-1.464;2023-05-03T12:59:15;101638.53;;;22.97;35.66
29839;BME280;18669;53.356;-1.464;2023-05-03T13:01:59;101638.69;;;22.61;35.01
29839;BME280;18669;53.356;-1.464;2023-05-03T13:04:44;101638.91;;;22.07;36.10
29839;BME280;18669;53.356;-1.464;2023-05-03T13:07:29;101637.00;;;21.39;37.32
29839;BME280;18669;53.356;-1.464;2023-05-03T13:10:14;101641.84;;;20.75;38.32
29839;BME280;18669;53.356;-1.464;2023-05-03T13:12:59;101639.88;;;20.40;39.90
29839;BME280;18669;53.356;-1.464;2023-05-03T13:15:44;101630.13;;;19.99;40.90
29839;BME280;18669;53.356;-1.464;2023-05-03T13:18:29;101619.66;;;19.94;40.59
29839;BME280;18669;53.356;-1.464;2023-05-03T13:21:14;101633.38;;;20.26;39.62
29839;BME280;18669;53.356;-1.464;2023-05-03T13:23:59;101633.13;;;20.12;40.48
29839;BME280;18669;53.356;-1.464;2023-05-03T13:26:44;101632.28;;;20.11;39.55
29839;BME280;18669;53.356;-1.464;2023-05-03T13:29:28;101627.53;;;20.37;40.00
29839;BME280;18669;53.356;-1.464;2023-05-03T13:32:13;101625.22;;;20.68;39.61
29839;BME280;18669;53.356;-1.464;2023-05-03T13:34:58;101620.88;;;20.65;38.65
29839;BME280;18669;53.356;-1.464;2023-05-03T13:37:43;101604.28;;;20.97;37.64
29839;BME280;18669;53.356;-1.464;2023-05-03T13:40:28;101602.34;;;21.18;38.46
29839;BME280;18669;53.356;-1.464;2023-05-03T13:43:13;101600.13;;;21.63;37.90
29839;BME280;18669;53.356;-1.464;2023-05-03T13:46:00;101599.81;;;22.03;37.04
29839;BME280;18669;53.356;-1.464;2023-05-03T13:48:45;101591.56;;;22.24;36.46
29839;BME280;18669;53.356;-1.464;2023-05-03T13:51:30;101577.41;;;22.38;35.70
29839;BME280;18669;53.356;-1.464;2023-05-03T13:54:15;101576.84;;;22.48;36.01
29839;BME280;18669;53.356;-1.464;2023-05-03T13:57:00;101585.13;;;22.44;36.27
29839;BME280;18669;53.356;-1.464;2023-05-03T13:59:46;101580.78;;;22.89;36.26
29839;BME280;18669;53.356;-1.464;2023-05-03T14:02:31;101573.78;;;22.87;35.43
29839;BME280;18669;53.356;-1.464;2023-05-03T14:05:16;101566.38;;;23.06;35.64
29839;BME280;18669;53.356;-1.464;2023-05-03T14:08:03;101570.31;;;22.85;34.20
29839;BME280;18669;53.356;-1.464;2023-05-03T14:10:48;101567.50;;;23.02;35.41
29839;BME280;18669;53.356;-1.464;2023-05-03T14:13:33;101560.56;;;22.68;36.51
29839;BME280;18669;53.356;-1.464;2023-05-03T14:16:19;101552.84;;;22.77;35.57
29839;BME280;18669;53.356;-1.464;2023-05-03T14:19:04;101570.88;;;21.76;36.64
29839;BME280;18669;53.356;-1.464;2023-05-03T14:21:49;101564.47;;;21.08;36.75
29839;BME280;18669;53.356;-1.464;2023-05-03T14:24:35;101555.69;;;20.68;38.36
29839;BME280;18669;53.356;-1.464;2023-05-03T14:27:20;101556.88;;;20.62;38.10
29839;BME280;18669;53.356;-1.464;2023-05-03T14:30:05;101557.75;;;20.44;39.01